sensor_id;sensor_type;location;lat;lon;timestamp;P1;durP1;ratioP1;P2;durP2;ratioP2
62338;SDS011;48368;53.406;6.214;2024-01-11T00:02:25;33.63;;;17.83;;
62338;SDS011;48368;53.406;6.214;2024-01-11T00:04:50;31.52;;;15.52;;
62338;SDS011;48368;53.406;6.214;2024-01-11T00:07:17;38.50;;;17.35;;
62338;SDS011;48368;53.406;6.214;2024-01-11T00:09:43;35.13;;;17.08;;
62338;SDS011;48368;53.406;6.214;2024-01-11T00:12:09;32.78;;;15.98;;
62338;SDS011;48368;53.406;6.214;2024-01-11T00:14:35;31.95;;;16.80;;
62338;SDS011;48368;53.406;6.214;2024-01-11T00:17:03;34.38;;;17.05;;
62338;SDS011;48368;53.406;6.214;2024-01-11T00:19:29;36.70;;;16.42;;
62338;SDS011;48368;53.406;6.214;2024-01-11T00:21:55;36.50;;;17.00;;
62338;SDS011;48368;53.406;6.214;2024-01-11T00:24:23;32.65;;;16.65;;
62338;SDS011;48368;53.406;6.214;2024-01-11T00:26:48;41.72;;;18.55;;
62338;SDS011;48368;53.406;6.214;2024-01-11T00:29:26;34.92;;;17.25;;
62338;SDS011;48368;53.406;6.214;2024-01-11T00:31:53;34.97;;;16.58;;
62338;SDS011;48368;53.406;6.214;2024-01-11T00:34:19;35.13;;;16.85;;
62338;SDS011;48368;53.406;6.214;2024-01-11T00:36:45;36.65;;;18.38;;
62338;SDS011;48368;53.406;6.214;2024-01-11T00:39:10;35.63;;;16.70;;
62338;SDS011;48368;53.406;6.214;2024-01-11T00:41:37;36.47;;;17.88;;
62338;SDS011;48368;53.406;6.214;2024-01-11T00:44:02;33.67;;;15.77;;
62338;SDS011;48368;53.406;6.214;2024-01-11T00:46:28;40.42;;;17.35;;
62338;SDS011;48368;53.406;6.214;2024-01-11T00:48:54;37.85;;;18.02;;
62338;SDS011;48368;53.406;6.214;2024-01-11T00:51:19;35.47;;;17.55;;
62338;SDS011;48368;53.406;6.214;2024-01-11T00:53:45;38.22;;;17.42;;
62338;SDS011;48368;53.406;6.214;2024-01-11T00:56:43;39.10;;;18.15;;
62338;SDS011;48368;53.406;6.214;2024-01-11T00:59:03;36.67;;;16.83;;
62338;SDS011;48368;53.406;6.214;2024-01-11T01:01:37;37.72;;;17.10;;
62338;SDS011;48368;53.406;6.214;2024-01-11T01:04:14;34.88;;;16.75;;
62338;SDS011;48368;53.406;6.214;2024-01-11T01:06:40;36.08;;;17.50;;
62338;SDS011;48368;53.406;6.214;2024-01-11T01:09:06;36.42;;;17.58;;
62338;SDS011;48368;53.406;6.214;2024-01-11T01:11:32;37.28;;;17.95;;
62338;SDS011;48368;53.406;6.214;2024-01-11T01:13:57;36.22;;;18.92;;
62338;SDS011;48368;53.406;6.214;2024-01-11T01:16:23;35.45;;;17.30;;
62338;SDS011;48368;53.406;6.214;2024-01-11T01:18:49;32.90;;;17.13;;
62338;SDS011;48368;53.406;6.214;2024-01-11T01:21:14;40.22;;;18.75;;
62338;SDS011;48368;53.406;6.214;2024-01-11T01:23:40;35.42;;;16.45;;
62338;SDS011;48368;53.406;6.214;2024-01-11T01:26:06;38.30;;;17.90;;
62338;SDS011;48368;53.406;6.214;2024-01-11T01:28:32;38.83;;;17.58;;
62338;SDS011;48368;53.406;6.214;2024-01-11T01:30:57;36.00;;;16.92;;
62338;SDS011;48368;53.406;6.214;2024-01-11T01:33:23;34.80;;;17.98;;
62338;SDS011;48368;53.406;6.214;2024-01-11T01:35:49;38.55;;;18.20;;
62338;SDS011;48368;53.406;6.214;2024-01-11T01:38:14;34.88;;;17.75;;
62338;SDS011;48368;53.406;6.214;2024-01-11T01:40:40;40.15;;;17.88;;
62338;SDS011;48368;53.406;6.214;2024-01-11T01:43:06;37.88;;;17.42;;
62338;SDS011;48368;53.406;6.214;2024-01-11T01:45:35;36.25;;;16.85;;
62338;SDS011;48368;53.406;6.214;2024-01-11T01:48:01;38.28;;;18.27;;
62338;SDS011;48368;53.406;6.214;2024-01-11T01:50:27;39.08;;;17.70;;
62338;SDS011;48368;53.406;6.214;2024-01-11T01:52:54;38.35;;;18.58;;
62338;SDS011;48368;53.406;6.214;2024-01-11T01:55:21;38.95;;;18.52;;
62338;SDS011;48368;53.406;6.214;2024-01-11T01:57:47;37.88;;;17.35;;
62338;SDS011;48368;53.406;6.214;2024-01-11T02:00:15;35.75;;;17.50;;
62338;SDS011;48368;53.406;6.214;2024-01-11T02:02:42;38.22;;;19.00;;
62338;SDS011;48368;53.406;6.214;2024-01-11T02:05:12;42.55;;;18.30;;
62338;SDS011;48368;53.406;6.214;2024-01-11T02:07:39;40.35;;;19.40;;
62338;SDS011;48368;53.406;6.214;2024-01-11T02:10:06;38.35;;;17.98;;
62338;SDS011;48368;53.406;6.214;2024-01-11T02:12:32;39.47;;;18.20;;
62338;SDS011;48368;53.406;6.214;2024-01-11T02:15:00;38.38;;;17.00;;
62338;SDS011;48368;53.406;6.214;2024-01-11T02:17:28;41.22;;;17.30;;
62338;SDS011;48368;53.406;6.214;2024-01-11T02:19:54;41.75;;;19.85;;
62338;SDS011;48368;53.406;6.214;2024-01-11T02:22:38;43.75;;;19.25;;
62338;SDS011;48368;53.406;6.214;2024-01-11T02:25:06;41.65;;;19.45;;
62338;SDS011;48368;53.406;6.214;2024-01-11T02:27:44;38.60;;;17.40;;
62338;SDS011;48368;53.406;6.214;2024-01-11T02:30:14;43.20;;;18.90;;
62338;SDS011;48368;53.406;6.214;2024-01-11T02:32:40;38.40;;;18.02;;
62338;SDS011;48368;53.406;6.214;2024-01-11T02:35:13;42.97;;;19.08;;
62338;SDS011;48368;53.406;6.214;2024-01-11T02:37:40;43.50;;;18.92;;
62338;SDS011;48368;53.406;6.214;2024-01-11T02:40:06;44.95;;;19.05;;
62338;SDS011;48368;53.406;6.214;2024-01-11T02:42:33;42.15;;;18.58;;
62338;SDS011;48368;53.406;6.214;2024-01-11T02:44:59;37.20;;;17.38;;
62338;SDS011;48368;53.406;6.214;2024-01-11T02:47:34;42.95;;;19.73;;
62338;SDS011;48368;53.406;6.214;2024-01-11T02:50:03;39.75;;;19.73;;
62338;SDS011;48368;53.406;6.214;2024-01-11T02:52:29;42.80;;;18.73;;
62338;SDS011;48368;53.406;6.214;2024-01-11T02:54:54;40.85;;;19.25;;
62338;SDS011;48368;53.406;6.214;2024-01-11T02:57:20;43.80;;;19.42;;
62338;SDS011;48368;53.406;6.214;2024-01-11T02:59:45;42.10;;;18.95;;
62338;SDS011;48368;53.406;6.214;2024-01-11T03:02:11;39.28;;;19.80;;
62338;SDS011;48368;53.406;6.214;2024-01-11T03:04:37;43.10;;;19.17;;
62338;SDS011;48368;53.406;6.214;2024-01-11T03:07:02;44.70;;;20.55;;
62338;SDS011;48368;53.406;6.214;2024-01-11T03:09:28;43.65;;;19.30;;
62338;SDS011;48368;53.406;6.214;2024-01-11T03:11:54;42.70;;;19.67;;
62338;SDS011;48368;53.406;6.214;2024-01-11T03:14:19;44.08;;;18.77;;
62338;SDS011;48368;53.406;6.214;2024-01-11T03:16:45;45.85;;;19.15;;
62338;SDS011;48368;53.406;6.214;2024-01-11T03:19:10;41.25;;;19.92;;
62338;SDS011;48368;53.406;6.214;2024-01-11T03:21:40;44.00;;;18.15;;
62338;SDS011;48368;53.406;6.214;2024-01-11T03:24:07;38.53;;;19.48;;
62338;SDS011;48368;53.406;6.214;2024-01-11T03:26:33;40.70;;;18.23;;
62338;SDS011;48368;53.406;6.214;2024-01-11T03:28:58;45.72;;;19.60;;
62338;SDS011;48368;53.406;6.214;2024-01-11T03:31:24;40.72;;;18.70;;
62338;SDS011;48368;53.406;6.214;2024-01-11T03:33:49;41.80;;;19.48;;
62338;SDS011;48368;53.406;6.214;2024-01-11T03:36:15;43.92;;;19.02;;
62338;SDS011;48368;53.406;6.214;2024-01-11T03:38:41;45.00;;;18.70;;
62338;SDS011;48368;53.406;6.214;2024-01-11T03:41:09;46.03;;;21.73;;
62338;SDS011;48368;53.406;6.214;2024-01-11T03:43:36;40.35;;;19.38;;
62338;SDS011;48368;53.406;6.214;2024-01-11T03:46:02;50.17;;;21.50;;
62338;SDS011;48368;53.406;6.214;2024-01-11T03:48:28;48.13;;;20.67;;
62338;SDS011;48368;53.406;6.214;2024-01-11T03:50:54;46.97;;;21.00;;
62338;SDS011;48368;53.406;6.214;2024-01-11T03:53:19;41.72;;;19.98;;
62338;SDS011;48368;53.406;6.214;2024-01-11T03:55:45;46.15;;;20.23;;
62338;SDS011;48368;53.406;6.214;2024-01-11T03:58:11;44.10;;;20.38;;
62338;SDS011;48368;53.406;6.214;2024-01-11T04:00:36;49.72;;;21.38;;
62338;SDS011;48368;53.406;6.214;2024-01-11T04:03:02;46.83;;;21.65;;
62338;SDS011;48368;53.406;6.214;2024-01-11T04:05:28;44.30;;;19.83;;
62338;SDS011;48368;53.406;6.214;2024-01-11T04:07:53;43.03;;;19.08;;
62338;SDS011;48368;53.406;6.214;2024-01-11T04:10:19;45.17;;;20.42;;
62338;SDS011;48368;53.406;6.214;2024-01-11T04:12:44;48.17;;;20.92;;
62338;SDS011;48368;53.406;6.214;2024-01-11T04:15:13;42.58;;;20.08;;
62338;SDS011;48368;53.406;6.214;2024-01-11T04:17:39;44.17;;;19.50;;
62338;SDS011;48368;53.406;6.214;2024-01-11T04:20:07;47.28;;;19.10;;
62338;SDS011;48368;53.406;6.214;2024-01-11T04:22:33;46.38;;;20.90;;
62338;SDS011;48368;53.406;6.214;2024-01-11T04:25:00;46.90;;;21.23;;
62338;SDS011;48368;53.406;6.214;2024-01-11T04:27:25;43.60;;;20.48;;
62338;SDS011;48368;53.406;6.214;2024-01-11T04:29:51;38.72;;;20.27;;
62338;SDS011;48368;53.406;6.214;2024-01-11T04:32:17;43.95;;;19.50;;
62338;SDS011;48368;53.406;6.214;2024-01-11T04:34:42;41.40;;;19.33;;
62338;SDS011;48368;53.406;6.214;2024-01-11T04:37:08;41.90;;;21.45;;
62338;SDS011;48368;53.406;6.214;2024-01-11T04:39:34;44.08;;;20.20;;
62338;SDS011;48368;53.406;6.214;2024-01-11T04:41:59;45.25;;;20.63;;
62338;SDS011;48368;53.406;6.214;2024-01-11T04:44:28;49.13;;;20.17;;
62338;SDS011;48368;53.406;6.214;2024-01-11T04:46:56;46.28;;;19.98;;
62338;SDS011;48368;53.406;6.214;2024-01-11T04:49:22;45.55;;;20.50;;
62338;SDS011;48368;53.406;6.214;2024-01-11T04:51:47;48.28;;;20.83;;
62338;SDS011;48368;53.406;6.214;2024-01-11T04:54:16;44.88;;;19.02;;
62338;SDS011;48368;53.406;6.214;2024-01-11T04:56:41;41.47;;;20.08;;
62338;SDS011;48368;53.406;6.214;2024-01-11T04:59:07;43.47;;;19.65;;
62338;SDS011;48368;53.406;6.214;2024-01-11T05:01:33;48.50;;;21.98;;
62338;SDS011;48368;53.406;6.214;2024-01-11T05:03:58;42.97;;;19.90;;
62338;SDS011;48368;53.406;6.214;2024-01-11T05:06:24;46.25;;;20.63;;
62338;SDS011;48368;53.406;6.214;2024-01-11T05:08:53;44.70;;;20.15;;
62338;SDS011;48368;53.406;6.214;2024-01-11T05:11:19;45.17;;;19.88;;
62338;SDS011;48368;53.406;6.214;2024-01-11T05:13:47;41.03;;;19.85;;
62338;SDS011;48368;53.406;6.214;2024-01-11T05:16:19;47.17;;;20.15;;
62338;SDS011;48368;53.406;6.214;2024-01-11T05:18:46;43.20;;;19.50;;
62338;SDS011;48368;53.406;6.214;2024-01-11T05:21:12;43.75;;;19.42;;
62338;SDS011;48368;53.406;6.214;2024-01-11T05:23:37;50.08;;;20.95;;
62338;SDS011;48368;53.406;6.214;2024-01-11T05:26:03;47.97;;;21.17;;
62338;SDS011;48368;53.406;6.214;2024-01-11T05:28:28;45.40;;;19.58;;
62338;SDS011;48368;53.406;6.214;2024-01-11T05:30:54;51.00;;;22.75;;
62338;SDS011;48368;53.406;6.214;2024-01-11T05:33:20;43.25;;;19.05;;
62338;SDS011;48368;53.406;6.214;2024-01-11T05:35:45;48.83;;;22.10;;
62338;SDS011;48368;53.406;6.214;2024-01-11T05:38:11;47.67;;;20.05;;
62338;SDS011;48368;53.406;6.214;2024-01-11T05:40:37;42.63;;;21.60;;
62338;SDS011;48368;53.406;6.214;2024-01-11T05:43:02;41.40;;;20.35;;
62338;SDS011;48368;53.406;6.214;2024-01-11T05:45:28;50.53;;;22.40;;
62338;SDS011;48368;53.406;6.214;2024-01-11T05:47:54;44.45;;;21.02;;
62338;SDS011;48368;53.406;6.214;2024-01-11T05:50:20;48.67;;;20.40;;
62338;SDS011;48368;53.406;6.214;2024-01-11T05:52:45;48.40;;;21.08;;
62338;SDS011;48368;53.406;6.214;2024-01-11T05:55:11;47.92;;;21.80;;
62338;SDS011;48368;53.406;6.214;2024-01-11T05:57:37;51.45;;;22.58;;
62338;SDS011;48368;53.406;6.214;2024-01-11T06:00:08;47.58;;;21.38;;
62338;SDS011;48368;53.406;6.214;2024-01-11T06:02:35;47.03;;;21.58;;
62338;SDS011;48368;53.406;6.214;2024-01-11T06:05:02;45.72;;;20.95;;
62338;SDS011;48368;53.406;6.214;2024-01-11T06:07:29;46.10;;;21.13;;
62338;SDS011;48368;53.406;6.214;2024-01-11T06:09:55;46.17;;;21.25;;
62338;SDS011;48368;53.406;6.214;2024-01-11T06:12:20;48.60;;;21.90;;
62338;SDS011;48368;53.406;6.214;2024-01-11T06:14:46;47.33;;;22.02;;
62338;SDS011;48368;53.406;6.214;2024-01-11T06:17:15;50.22;;;22.30;;
62338;SDS011;48368;53.406;6.214;2024-01-11T06:19:40;47.08;;;23.25;;
62338;SDS011;48368;53.406;6.214;2024-01-11T06:22:06;53.28;;;22.85;;
62338;SDS011;48368;53.406;6.214;2024-01-11T06:24:32;44.92;;;21.77;;
62338;SDS011;48368;53.406;6.214;2024-01-11T06:26:57;46.33;;;22.83;;
62338;SDS011;48368;53.406;6.214;2024-01-11T06:29:23;44.95;;;21.77;;
62338;SDS011;48368;53.406;6.214;2024-01-11T06:31:48;44.83;;;21.38;;
62338;SDS011;48368;53.406;6.214;2024-01-11T06:34:14;43.67;;;22.63;;
62338;SDS011;48368;53.406;6.214;2024-01-11T06:36:40;49.50;;;23.50;;
62338;SDS011;48368;53.406;6.214;2024-01-11T06:39:05;55.92;;;23.75;;
62338;SDS011;48368;53.406;6.214;2024-01-11T06:41:31;51.08;;;22.85;;
62338;SDS011;48368;53.406;6.214;2024-01-11T06:44:02;51.47;;;24.45;;
62338;SDS011;48368;53.406;6.214;2024-01-11T06:46:28;48.10;;;23.23;;
62338;SDS011;48368;53.406;6.214;2024-01-11T06:48:54;45.13;;;21.77;;
62338;SDS011;48368;53.406;6.214;2024-01-11T06:51:22;50.60;;;21.98;;
62338;SDS011;48368;53.406;6.214;2024-01-11T06:53:48;46.83;;;22.63;;
62338;SDS011;48368;53.406;6.214;2024-01-11T06:56:18;45.35;;;21.30;;
62338;SDS011;48368;53.406;6.214;2024-01-11T07:01:13;51.42;;;22.98;;
62338;SDS011;48368;53.406;6.214;2024-01-11T07:03:39;46.53;;;22.75;;
62338;SDS011;48368;53.406;6.214;2024-01-11T07:06:05;44.88;;;20.95;;
62338;SDS011;48368;53.406;6.214;2024-01-11T07:08:31;48.53;;;21.00;;
62338;SDS011;48368;53.406;6.214;2024-01-11T07:11:00;45.72;;;20.52;;
62338;SDS011;48368;53.406;6.214;2024-01-11T07:13:27;47.75;;;22.60;;
62338;SDS011;48368;53.406;6.214;2024-01-11T07:15:54;46.97;;;21.52;;
62338;SDS011;48368;53.406;6.214;2024-01-11T07:18:20;45.83;;;20.52;;
62338;SDS011;48368;53.406;6.214;2024-01-11T07:20:46;48.20;;;22.65;;
62338;SDS011;48368;53.406;6.214;2024-01-11T07:23:13;48.15;;;21.77;;
62338;SDS011;48368;53.406;6.214;2024-01-11T07:25:39;46.40;;;22.92;;
62338;SDS011;48368;53.406;6.214;2024-01-11T07:28:05;50.97;;;22.10;;
62338;SDS011;48368;53.406;6.214;2024-01-11T07:30:31;50.25;;;22.40;;
62338;SDS011;48368;53.406;6.214;2024-01-11T07:32:57;44.25;;;22.15;;
62338;SDS011;48368;53.406;6.214;2024-01-11T07:35:23;49.13;;;22.45;;
62338;SDS011;48368;53.406;6.214;2024-01-11T07:37:48;48.08;;;22.00;;
62338;SDS011;48368;53.406;6.214;2024-01-11T07:40:15;45.92;;;21.58;;
62338;SDS011;48368;53.406;6.214;2024-01-11T07:42:42;43.15;;;20.38;;
62338;SDS011;48368;53.406;6.214;2024-01-11T07:45:08;45.75;;;21.15;;
62338;SDS011;48368;53.406;6.214;2024-01-11T07:47:37;43.30;;;20.95;;
62338;SDS011;48368;53.406;6.214;2024-01-11T07:50:06;47.03;;;21.55;;
62338;SDS011;48368;53.406;6.214;2024-01-11T07:52:49;44.40;;;22.13;;
62338;SDS011;48368;53.406;6.214;2024-01-11T07:55:14;43.35;;;21.23;;
62338;SDS011;48368;53.406;6.214;2024-01-11T07:57:40;44.83;;;21.45;;
62338;SDS011;48368;53.406;6.214;2024-01-11T08:00:06;44.97;;;23.23;;
62338;SDS011;48368;53.406;6.214;2024-01-11T08:02:33;44.42;;;20.75;;
62338;SDS011;48368;53.406;6.214;2024-01-11T08:04:58;42.92;;;21.65;;
62338;SDS011;48368;53.406;6.214;2024-01-11T08:07:25;44.85;;;20.65;;
62338;SDS011;48368;53.406;6.214;2024-01-11T08:09:54;45.00;;;21.02;;
62338;SDS011;48368;53.406;6.214;2024-01-11T08:12:20;48.05;;;23.17;;
62338;SDS011;48368;53.406;6.214;2024-01-11T08:14:46;48.47;;;23.42;;
62338;SDS011;48368;53.406;6.214;2024-01-11T08:17:15;46.75;;;24.88;;
62338;SDS011;48368;53.406;6.214;2024-01-11T08:19:41;44.28;;;22.83;;
62338;SDS011;48368;53.406;6.214;2024-01-11T08:22:10;48.95;;;22.60;;
62338;SDS011;48368;53.406;6.214;2024-01-11T08:24:36;42.80;;;21.63;;
62338;SDS011;48368;53.406;6.214;2024-01-11T08:27:02;40.88;;;20.85;;
62338;SDS011;48368;53.406;6.214;2024-01-11T08:29:28;44.35;;;22.13;;
62338;SDS011;48368;53.406;6.214;2024-01-11T08:31:54;41.78;;;20.75;;
62338;SDS011;48368;53.406;6.214;2024-01-11T08:34:20;40.60;;;19.02;;
62338;SDS011;48368;53.406;6.214;2024-01-11T08:36:46;44.95;;;21.73;;
62338;SDS011;48368;53.406;6.214;2024-01-11T08:39:12;49.38;;;20.83;;
62338;SDS011;48368;53.406;6.214;2024-01-11T08:41:39;42.83;;;19.15;;
62338;SDS011;48368;53.406;6.214;2024-01-11T08:44:05;38.95;;;19.67;;
62338;SDS011;48368;53.406;6.214;2024-01-11T08:46:31;36.42;;;18.73;;
62338;SDS011;48368;53.406;6.214;2024-01-11T08:49:00;39.13;;;20.33;;
62338;SDS011;48368;53.406;6.214;2024-01-11T08:51:28;41.92;;;19.05;;
62338;SDS011;48368;53.406;6.214;2024-01-11T08:53:54;32.58;;;16.02;;
62338;SDS011;48368;53.406;6.214;2024-01-11T08:56:20;23.00;;;10.02;;
62338;SDS011;48368;53.406;6.214;2024-01-11T08:58:52;10.43;;;4.05;;
62338;SDS011;48368;53.406;6.214;2024-01-11T09:01:18;5.05;;;2.20;;
62338;SDS011;48368;53.406;6.214;2024-01-11T09:03:44;2.42;;;1.52;;
62338;SDS011;48368;53.406;6.214;2024-01-11T09:06:12;3.25;;;1.42;;
62338;SDS011;48368;53.406;6.214;2024-01-11T09:08:38;4.13;;;1.52;;
62338;SDS011;48368;53.406;6.214;2024-01-11T09:11:06;8.73;;;1.67;;
62338;SDS011;48368;53.406;6.214;2024-01-11T09:13:31;4.43;;;1.73;;
62338;SDS011;48368;53.406;6.214;2024-01-11T09:15:57;5.57;;;1.17;;
62338;SDS011;48368;53.406;6.214;2024-01-11T09:18:23;3.70;;;1.40;;
62338;SDS011;48368;53.406;6.214;2024-01-11T09:20:49;4.15;;;0.93;;
62338;SDS011;48368;53.406;6.214;2024-01-11T09:23:15;4.57;;;0.80;;
62338;SDS011;48368;53.406;6.214;2024-01-11T09:25:43;2.28;;;0.60;;
62338;SDS011;48368;53.406;6.214;2024-01-11T09:28:08;3.13;;;1.05;;
62338;SDS011;48368;53.406;6.214;2024-01-11T09:30:34;5.38;;;1.13;;
62338;SDS011;48368;53.406;6.214;2024-01-11T09:32:59;8.23;;;2.05;;
62338;SDS011;48368;53.406;6.214;2024-01-11T09:35:25;5.70;;;1.60;;
62338;SDS011;48368;53.406;6.214;2024-01-11T09:37:51;4.65;;;1.55;;
62338;SDS011;48368;53.406;6.214;2024-01-11T09:40:18;5.20;;;1.40;;
62338;SDS011;48368;53.406;6.214;2024-01-11T09:42:44;5.40;;;1.65;;
62338;SDS011;48368;53.406;6.214;2024-01-11T09:45:12;4.22;;;1.90;;
62338;SDS011;48368;53.406;6.214;2024-01-11T09:47:39;5.88;;;1.48;;
62338;SDS011;48368;53.406;6.214;2024-01-11T09:50:06;3.70;;;1.38;;
62338;SDS011;48368;53.406;6.214;2024-01-11T09:52:35;4.45;;;1.63;;
62338;SDS011;48368;53.406;6.214;2024-01-11T09:55:03;5.13;;;1.60;;
62338;SDS011;48368;53.406;6.214;2024-01-11T09:57:30;6.35;;;1.25;;
62338;SDS011;48368;53.406;6.214;2024-01-11T09:59:57;6.97;;;1.38;;
62338;SDS011;48368;53.406;6.214;2024-01-11T10:02:23;6.63;;;1.50;;
62338;SDS011;48368;53.406;6.214;2024-01-11T10:04:54;3.08;;;1.08;;
62338;SDS011;48368;53.406;6.214;2024-01-11T10:07:22;4.10;;;1.30;;
62338;SDS011;48368;53.406;6.214;2024-01-11T10:09:49;4.80;;;1.33;;
62338;SDS011;48368;53.406;6.214;2024-01-11T10:12:20;6.65;;;1.60;;
62338;SDS011;48368;53.406;6.214;2024-01-11T10:14:48;6.10;;;1.40;;
62338;SDS011;48368;53.406;6.214;2024-01-11T10:17:14;8.75;;;1.70;;
62338;SDS011;48368;53.406;6.214;2024-01-11T10:19:39;5.85;;;1.35;;
62338;SDS011;48368;53.406;6.214;2024-01-11T10:22:05;17.33;;;1.63;;
62338;SDS011;48368;53.406;6.214;2024-01-11T10:24:32;7.88;;;1.58;;
62338;SDS011;48368;53.406;6.214;2024-01-11T10:26:57;7.43;;;1.52;;
62338;SDS011;48368;53.406;6.214;2024-01-11T10:29:33;7.93;;;2.17;;
62338;SDS011;48368;53.406;6.214;2024-01-11T10:32:01;6.05;;;1.50;;
62338;SDS011;48368;53.406;6.214;2024-01-11T10:34:29;10.95;;;2.28;;
62338;SDS011;48368;53.406;6.214;2024-01-11T10:36:55;4.03;;;1.52;;
62338;SDS011;48368;53.406;6.214;2024-01-11T10:39:23;13.98;;;2.40;;
62338;SDS011;48368;53.406;6.214;2024-01-11T10:41:57;10.82;;;2.58;;
62338;SDS011;48368;53.406;6.214;2024-01-11T10:44:29;5.80;;;1.83;;
62338;SDS011;48368;53.406;6.214;2024-01-11T10:46:59;9.27;;;2.50;;
62338;SDS011;48368;53.406;6.214;2024-01-11T10:49:27;13.43;;;3.15;;
62338;SDS011;48368;53.406;6.214;2024-01-11T10:51:59;11.35;;;2.80;;
62338;SDS011;48368;53.406;6.214;2024-01-11T10:54:27;11.15;;;2.38;;
62338;SDS011;48368;53.406;6.214;2024-01-11T10:56:54;20.83;;;3.10;;
62338;SDS011;48368;53.406;6.214;2024-01-11T10:59:21;17.05;;;3.40;;
62338;SDS011;48368;53.406;6.214;2024-01-11T11:01:50;28.95;;;3.72;;
62338;SDS011;48368;53.406;6.214;2024-01-11T11:04:21;20.77;;;3.15;;
62338;SDS011;48368;53.406;6.214;2024-01-11T11:06:57;16.55;;;3.17;;
62338;SDS011;48368;53.406;6.214;2024-01-11T11:09:26;24.33;;;3.17;;
62338;SDS011;48368;53.406;6.214;2024-01-11T11:11:56;18.90;;;3.25;;
62338;SDS011;48368;53.406;6.214;2024-01-11T11:14:24;19.08;;;3.60;;
62338;SDS011;48368;53.406;6.214;2024-01-11T11:16:53;18.23;;;3.72;;
62338;SDS011;48368;53.406;6.214;2024-01-11T11:19:19;28.58;;;3.00;;
62338;SDS011;48368;53.406;6.214;2024-01-11T11:21:46;20.50;;;3.05;;
62338;SDS011;48368;53.406;6.214;2024-01-11T11:24:13;19.98;;;3.25;;
62338;SDS011;48368;53.406;6.214;2024-01-11T11:26:39;15.05;;;3.20;;
62338;SDS011;48368;53.406;6.214;2024-01-11T11:29:05;25.83;;;4.03;;
62338;SDS011;48368;53.406;6.214;2024-01-11T11:31:34;24.73;;;6.03;;
62338;SDS011;48368;53.406;6.214;2024-01-11T11:34:01;17.15;;;3.17;;
62338;SDS011;48368;53.406;6.214;2024-01-11T11:36:29;22.90;;;4.80;;
62338;SDS011;48368;53.406;6.214;2024-01-11T11:38:56;20.63;;;3.95;;
62338;SDS011;48368;53.406;6.214;2024-01-11T11:41:31;25.85;;;3.75;;
62338;SDS011;48368;53.406;6.214;2024-01-11T11:44:01;24.95;;;4.25;;
62338;SDS011;48368;53.406;6.214;2024-01-11T11:46:28;20.23;;;3.42;;
62338;SDS011;48368;53.406;6.214;2024-01-11T11:48:53;26.30;;;3.92;;
62338;SDS011;48368;53.406;6.214;2024-01-11T11:51:20;19.20;;;3.80;;
62338;SDS011;48368;53.406;6.214;2024-01-11T11:53:47;19.10;;;3.75;;
62338;SDS011;48368;53.406;6.214;2024-01-11T11:56:14;19.27;;;3.58;;
62338;SDS011;48368;53.406;6.214;2024-01-11T11:58:42;24.52;;;3.85;;
62338;SDS011;48368;53.406;6.214;2024-01-11T12:01:09;21.00;;;3.78;;
62338;SDS011;48368;53.406;6.214;2024-01-11T12:03:35;22.90;;;4.50;;
62338;SDS011;48368;53.406;6.214;2024-01-11T12:06:04;26.85;;;4.03;;
62338;SDS011;48368;53.406;6.214;2024-01-11T12:08:34;18.83;;;4.45;;
62338;SDS011;48368;53.406;6.214;2024-01-11T12:11:01;19.52;;;2.97;;
62338;SDS011;48368;53.406;6.214;2024-01-11T12:13:27;25.80;;;4.07;;
62338;SDS011;48368;53.406;6.214;2024-01-11T12:15:53;24.58;;;4.18;;
62338;SDS011;48368;53.406;6.214;2024-01-11T12:18:20;27.55;;;4.22;;
62338;SDS011;48368;53.406;6.214;2024-01-11T12:20:46;19.98;;;3.63;;
62338;SDS011;48368;53.406;6.214;2024-01-11T12:23:11;23.02;;;4.03;;
62338;SDS011;48368;53.406;6.214;2024-01-11T12:25:39;26.73;;;4.30;;
62338;SDS011;48368;53.406;6.214;2024-01-11T12:28:06;39.92;;;5.85;;
62338;SDS011;48368;53.406;6.214;2024-01-11T12:30:32;28.00;;;4.20;;
62338;SDS011;48368;53.406;6.214;2024-01-11T12:32:58;21.38;;;5.13;;
62338;SDS011;48368;53.406;6.214;2024-01-11T12:35:34;25.25;;;3.90;;
62338;SDS011;48368;53.406;6.214;2024-01-11T12:40:27;18.48;;;3.65;;
62338;SDS011;48368;53.406;6.214;2024-01-11T12:42:53;19.70;;;3.58;;
62338;SDS011;48368;53.406;6.214;2024-01-11T12:45:22;28.88;;;4.03;;
62338;SDS011;48368;53.406;6.214;2024-01-11T12:47:48;24.52;;;3.60;;
62338;SDS011;48368;53.406;6.214;2024-01-11T12:50:13;25.45;;;4.60;;
62338;SDS011;48368;53.406;6.214;2024-01-11T12:52:39;29.80;;;3.88;;
62338;SDS011;48368;53.406;6.214;2024-01-11T12:55:07;22.80;;;4.55;;
62338;SDS011;48368;53.406;6.214;2024-01-11T12:57:43;27.25;;;4.20;;
62338;SDS011;48368;53.406;6.214;2024-01-11T13:00:12;30.88;;;4.07;;
62338;SDS011;48368;53.406;6.214;2024-01-11T13:02:39;22.48;;;5.03;;
62338;SDS011;48368;53.406;6.214;2024-01-11T13:05:06;24.80;;;5.45;;
62338;SDS011;48368;53.406;6.214;2024-01-11T13:07:34;18.33;;;4.10;;
62338;SDS011;48368;53.406;6.214;2024-01-11T13:10:01;25.15;;;3.38;;
62338;SDS011;48368;53.406;6.214;2024-01-11T13:12:29;34.95;;;6.25;;
62338;SDS011;48368;53.406;6.214;2024-01-11T13:14:55;25.10;;;4.00;;
62338;SDS011;48368;53.406;6.214;2024-01-11T13:17:21;28.20;;;4.43;;
62338;SDS011;48368;53.406;6.214;2024-01-11T13:19:47;25.25;;;4.63;;
62338;SDS011;48368;53.406;6.214;2024-01-11T13:22:12;22.80;;;5.28;;
62338;SDS011;48368;53.406;6.214;2024-01-11T13:24:38;20.50;;;3.55;;
62338;SDS011;48368;53.406;6.214;2024-01-11T13:27:03;33.38;;;5.40;;
62338;SDS011;48368;53.406;6.214;2024-01-11T13:29:29;23.92;;;5.03;;
62338;SDS011;48368;53.406;6.214;2024-01-11T13:31:55;34.13;;;4.65;;
62338;SDS011;48368;53.406;6.214;2024-01-11T13:34:21;30.30;;;4.07;;
62338;SDS011;48368;53.406;6.214;2024-01-11T13:36:47;24.77;;;3.78;;
62338;SDS011;48368;53.406;6.214;2024-01-11T13:39:12;29.38;;;4.95;;
62338;SDS011;48368;53.406;6.214;2024-01-11T13:41:38;26.42;;;4.30;;
62338;SDS011;48368;53.406;6.214;2024-01-11T13:44:05;21.55;;;3.78;;
62338;SDS011;48368;53.406;6.214;2024-01-11T13:46:32;21.58;;;3.95;;
62338;SDS011;48368;53.406;6.214;2024-01-11T13:48:58;29.70;;;5.40;;
62338;SDS011;48368;53.406;6.214;2024-01-11T13:51:24;16.50;;;3.38;;
62338;SDS011;48368;53.406;6.214;2024-01-11T13:53:49;24.50;;;5.45;;
62338;SDS011;48368;53.406;6.214;2024-01-11T13:56:15;23.17;;;4.05;;
62338;SDS011;48368;53.406;6.214;2024-01-11T13:58:41;27.17;;;4.40;;
62338;SDS011;48368;53.406;6.214;2024-01-11T14:01:06;19.08;;;3.63;;
62338;SDS011;48368;53.406;6.214;2024-01-11T14:03:32;26.30;;;3.38;;
62338;SDS011;48368;53.406;6.214;2024-01-11T14:05:58;26.42;;;4.50;;
62338;SDS011;48368;53.406;6.214;2024-01-11T14:08:25;18.17;;;3.90;;
62338;SDS011;48368;53.406;6.214;2024-01-11T14:10:52;22.05;;;4.57;;
62338;SDS011;48368;53.406;6.214;2024-01-11T14:13:19;22.50;;;3.80;;
62338;SDS011;48368;53.406;6.214;2024-01-11T14:15:45;26.40;;;4.70;;
62338;SDS011;48368;53.406;6.214;2024-01-11T14:18:15;17.48;;;3.83;;
62338;SDS011;48368;53.406;6.214;2024-01-11T14:20:41;23.70;;;3.88;;
62338;SDS011;48368;53.406;6.214;2024-01-11T14:23:13;29.50;;;5.28;;
62338;SDS011;48368;53.406;6.214;2024-01-11T14:25:39;16.42;;;3.30;;
62338;SDS011;48368;53.406;6.214;2024-01-11T14:28:05;20.45;;;3.63;;
62338;SDS011;48368;53.406;6.214;2024-01-11T14:30:31;27.67;;;4.10;;
62338;SDS011;48368;53.406;6.214;2024-01-11T14:32:56;14.63;;;3.45;;